Time;durP1;ratioP1;P1;durP2;ratioP2;P2;SDS_P1;SDS_P2;PMS_P1;PMS_P2;Temp;Humidity;BMP_temperature;BMP_pressure;BME280_temperature;BME280_humidity;BME280_pressure;Samples;Min_cycle;Max_cycle;Signal;HPM_P1;HPM_P2
2022/05/12 00:00:36;;;;;;;;;;;18.80;51.30;;;;;;4968406;28;86931;-47
2022/05/12 00:03:03;;;;;;;;;;;18.70;51.20;;;;;;4970466;28;87868;-47
2022/05/12 00:05:28;;;;;;;;;;;18.70;51.30;;;;;;4968140;28;86890;-48
2022/05/12 00:07:54;;;;;;;;;;;18.70;51.20;;;;;;4968287;28;86913;-47
2022/05/12 00:10:21;;;;;;;;;;;18.70;51.20;;;;;;4968044;28;87948;-48
2022/05/12 00:12:47;;;;;;;;;;;18.70;51.20;;;;;;4968154;28;86926;-47
2022/05/12 00:15:14;;;;;;;;;;;18.60;51.20;;;;;;4968289;28;86864;-47
2022/05/12 00:17:40;;;;;;;;;;;18.60;51.90;;;;;;4966929;28;89406;-47
2022/05/12 00:20:06;;;;;;;;;;;18.60;51.20;;;;;;4967914;28;87008;-47
2022/05/12 00:22:31;;;;;;;;;;;18.60;51.20;;;;;;4967753;28;88297;-47
2022/05/12 00:24:57;;;;;;;;;;;18.60;51.30;;;;;;4970307;28;87779;-47
2022/05/12 00:27:23;;;;;;;;;;;18.60;51.30;;;;;;4967579;28;87160;-47
2022/05/12 00:29:48;;;;;;;;;;;18.50;51.30;;;;;;4967442;28;87917;-47
2022/05/12 00:32:14;;;;;;;;;;;18.50;51.30;;;;;;4967619;28;86913;-47
2022/05/12 00:34:39;;;;;;;;;;;18.50;51.30;;;;;;4968065;28;88019;-48
2022/05/12 00:37:05;;;;;;;;;;;18.50;51.30;;;;;;4967514;28;87501;-49
2022/05/12 00:39:31;;;;;;;;;;;18.50;51.30;;;;;;4967570;28;86795;-47
2022/05/12 00:41:57;;;;;;;;;;;18.40;51.20;;;;;;4967006;28;88036;-50
2022/05/12 00:44:23;;;;;;;;;;;18.40;51.30;;;;;;4970155;28;86800;-47
2022/05/12 00:46:50;;;;;;;;;;;18.40;51.30;;;;;;4967886;28;87271;-47
2022/05/12 00:49:22;;;;;;;;;;;18.40;51.30;;;;;;4967066;28;88627;-47
2022/05/12 00:51:54;;;;;;;;;;;18.40;51.40;;;;;;4966983;28;87162;-47
2022/05/12 00:54:26;;;;;;;;;;;18.30;51.40;;;;;;4967755;28;86909;-47
2022/05/12 00:56:52;;;;;;;;;;;18.40;51.40;;;;;;4966970;28;88659;-47
2022/05/12 00:59:24;;;;;;;;;;;18.30;51.30;;;;;;4967702;28;86185;-47
2022/05/12 01:01:50;;;;;;;;;;;18.30;51.30;;;;;;4967432;28;87266;-47
2022/05/12 01:04:16;;;;;;;;;;;18.30;51.40;;;;;;4966842;28;88616;-48
2022/05/12 01:06:42;;;;;;;;;;;18.20;51.40;;;;;;4969538;28;87769;-47
2022/05/12 01:09:07;;;;;;;;;;;18.20;51.30;;;;;;4966605;28;86858;-47
2022/05/12 01:11:34;;;;;;;;;;;18.20;51.30;;;;;;4967249;28;86863;-47
2022/05/12 01:14:01;;;;;;;;;;;18.20;51.30;;;;;;4967145;28;87920;-47
2022/05/12 01:16:34;;;;;;;;;;;18.20;51.30;;;;;;4966626;28;88621;-48
2022/05/12 01:19:00;;;;;;;;;;;18.20;51.40;;;;;;4967180;28;87186;-47
2022/05/12 01:21:25;;;;;;;;;;;18.20;51.40;;;;;;4967025;28;88023;-47
2022/05/12 01:23:51;;;;;;;;;;;18.20;51.40;;;;;;4967389;28;86189;-47
2022/05/12 01:26:17;;;;;;;;;;;18.10;51.30;;;;;;4967163;28;87106;-47
2022/05/12 01:28:43;;;;;;;;;;;18.10;51.40;;;;;;4969441;28;87893;-48
2022/05/12 01:31:14;;;;;;;;;;;18.10;51.40;;;;;;4966399;28;87873;-47
2022/05/12 01:33:39;;;;;;;;;;;18.00;51.30;;;;;;4966866;28;87982;-47
2022/05/12 01:36:05;;;;;;;;;;;18.00;51.40;;;;;;4966456;28;88779;-49
2022/05/12 01:38:30;;;;;;;;;;;18.00;51.40;;;;;;4966697;28;86985;-48
2022/05/12 01:40:56;;;;;;;;;;;18.00;51.30;;;;;;4966768;28;88064;-48
2022/05/12 01:43:22;;;;;;;;;;;18.00;51.40;;;;;;4966530;28;86891;-48
2022/05/12 01:45:47;;;;;;;;;;;18.00;51.40;;;;;;4966970;28;86903;-47
2022/05/12 01:48:13;;;;;;;;;;;17.90;51.40;;;;;;4967151;28;88061;-49
2022/05/12 01:50:40;;;;;;;;;;;18.00;51.40;;;;;;4969197;28;88474;-51
2022/05/12 01:53:09;;;;;;;;;;;17.90;51.40;;;;;;4966513;28;87193;-48
2022/05/12 01:55:35;;;;;;;;;;;17.90;51.40;;;;;;4965325;28;88701;-48
2022/05/12 01:58:02;;;;;;;;;;;17.90;51.30;;;;;;4966838;28;86937;-48
2022/05/12 02:00:28;;;;;;;;;;;17.90;51.40;;;;;;4966533;28;87195;-47
2022/05/12 02:02:54;;;;;;;;;;;17.80;52.00;;;;;;4966339;28;87726;-47
2022/05/12 02:05:20;;;;;;;;;;;17.80;51.40;;;;;;4969973;28;86945;-47
2022/05/12 02:07:47;;;;;;;;;;;17.80;51.30;;;;;;4969986;28;87225;-47
2022/05/12 02:10:15;;;;;;;;;;;17.80;51.40;;;;;;4969227;28;88563;-47
2022/05/12 02:12:41;;;;;;;;;;;17.80;51.50;;;;;;4973238;28;86105;-47
2022/05/12 02:15:08;;;;;;;;;;;17.70;51.40;;;;;;4969404;28;88949;-47
2022/05/12 02:17:34;;;;;;;;;;;17.70;51.40;;;;;;4969619;28;86857;-47
2022/05/12 02:20:00;;;;;;;;;;;17.70;51.40;;;;;;4969399;28;88078;-47
2022/05/12 02:22:26;;;;;;;;;;;17.70;51.40;;;;;;4969309;28;87670;-47
2022/05/12 02:24:52;;;;;;;;;;;17.70;51.40;;;;;;4969574;28;86911;-47
2022/05/12 02:27:17;;;;;;;;;;;17.60;51.50;;;;;;4969687;28;88145;-47
2022/05/12 02:29:43;;;;;;;;;;;17.60;51.50;;;;;;4969519;28;86911;-47
2022/05/12 02:32:09;;;;;;;;;;;17.60;51.40;;;;;;4969440;28;87088;-47
2022/05/12 02:34:35;;;;;;;;;;;17.60;51.40;;;;;;4972404;28;87192;-47
2022/05/12 02:37:02;;;;;;;;;;;17.50;51.40;;;;;;4969946;28;86174;-47
2022/05/12 02:39:29;;;;;;;;;;;17.50;51.60;;;;;;4969531;28;87021;-47
2022/05/12 02:41:55;;;;;;;;;;;17.50;51.50;;;;;;4969126;28;88709;-47
2022/05/12 02:44:21;;;;;;;;;;;17.50;51.50;;;;;;4968811;28;87819;-47
2022/05/12 02:46:47;;;;;;;;;;;17.40;51.50;;;;;;4969424;28;88905;-47
2022/05/12 02:49:12;;;;;;;;;;;17.50;51.60;;;;;;4968910;28;88682;-47
2022/05/12 02:51:38;;;;;;;;;;;17.40;51.50;;;;;;4969253;28;86876;-47
2022/05/12 02:54:03;;;;;;;;;;;17.50;51.50;;;;;;4971760;28;87944;-47
2022/05/12 02:56:29;;;;;;;;;;;17.50;51.50;;;;;;4969360;28;86964;-47
2022/05/12 02:58:55;;;;;;;;;;;17.40;51.50;;;;;;4969501;28;86834;-47
2022/05/12 03:01:20;;;;;;;;;;;17.40;51.60;;;;;;4969293;28;87014;-47
2022/05/12 03:03:46;;;;;;;;;;;17.40;51.60;;;;;;4969456;28;86811;-47
2022/05/12 03:06:12;;;;;;;;;;;17.40;51.50;;;;;;4969054;28;88105;-47
2022/05/12 03:08:42;;;;;;;;;;;17.30;51.50;;;;;;4967955;28;87882;-47
2022/05/12 03:11:08;;;;;;;;;;;17.30;51.60;;;;;;4968983;28;87144;-47
2022/05/12 03:13:34;;;;;;;;;;;17.30;51.50;;;;;;4969201;28;87176;-47
2022/05/12 03:16:00;;;;;;;;;;;17.30;51.50;;;;;;4971530;28;87515;-47
2022/05/12 03:18:25;;;;;;;;;;;17.30;51.50;;;;;;4968909;28;87911;-47
2022/05/12 03:20:51;;;;;;;;;;;17.20;51.60;;;;;;4968397;28;88578;-47
2022/05/12 03:23:18;;;;;;;;;;;17.20;51.60;;;;;;4968878;28;86812;-47
2022/05/12 03:25:44;;;;;;;;;;;17.20;51.50;;;;;;4969235;28;87778;-47
2022/05/12 03:28:10;;;;;;;;;;;17.20;51.60;;;;;;4968385;28;88455;-47
2022/05/12 03:30:36;;;;;;;;;;;17.20;51.70;;;;;;4968834;28;86902;-47
2022/05/12 03:33:02;;;;;;;;;;;17.20;51.70;;;;;;4967932;28;88005;-47
2022/05/12 03:35:28;;;;;;;;;;;17.10;51.60;;;;;;4968165;28;88642;-47
2022/05/12 03:37:54;;;;;;;;;;;17.10;51.50;;;;;;4971396;28;86859;-47
2022/05/12 03:40:20;;;;;;;;;;;17.10;51.70;;;;;;4968452;28;87646;-47
2022/05/12 03:42:46;;;;;;;;;;;17.10;51.70;;;;;;4968467;28;86883;-47
2022/05/12 03:45:13;;;;;;;;;;;17.10;51.70;;;;;;4968561;28;87639;-47
2022/05/12 03:47:39;;;;;;;;;;;17.00;51.60;;;;;;4968081;28;88711;-47
2022/05/12 03:50:08;;;;;;;;;;;17.00;51.60;;;;;;4968960;28;86492;-46
2022/05/12 03:52:34;;;;;;;;;;;17.00;51.60;;;;;;4968359;28;87249;-47
2022/05/12 03:55:00;;;;;;;;;;;17.00;51.60;;;;;;4968227;28;87511;-47
2022/05/12 03:57:27;;;;;;;;;;;17.00;51.70;;;;;;4967260;28;88026;-47
2022/05/12 03:59:53;;;;;;;;;;;17.00;51.60;;;;;;4970732;28;88958;-47
2022/05/12 04:02:19;;;;;;;;;;;16.90;51.70;;;;;;4968262;28;86847;-47
2022/05/12 04:04:46;;;;;;;;;;;17.00;51.70;;;;;;4968198;28;87806;-47
2022/05/12 04:07:12;;;;;;;;;;;16.90;51.60;;;;;;4967716;28;88532;-47
2022/05/12 04:09:38;;;;;;;;;;;16.90;51.60;;;;;;4967776;28;86962;-47
2022/05/12 04:12:05;;;;;;;;;;;16.90;51.60;;;;;;4968262;28;86955;-47
2022/05/12 04:14:31;;;;;;;;;;;16.90;51.70;;;;;;4968127;28;87806;-47
2022/05/12 04:16:58;;;;;;;;;;;16.80;51.70;;;;;;4968284;28;86842;-47
2022/05/12 04:19:24;;;;;;;;;;;16.90;51.70;;;;;;4968208;28;87176;-47
2022/05/12 04:21:52;;;;;;;;;;;16.80;51.70;;;;;;4969780;28;89503;-47
2022/05/12 04:24:18;;;;;;;;;;;16.80;51.70;;;;;;4967856;28;89008;-47
2022/05/12 04:26:44;;;;;;;;;;;16.80;52.30;;;;;;4967074;28;87300;-47
2022/05/12 04:29:11;;;;;;;;;;;16.80;51.70;;;;;;4967584;28;87222;-47
2022/05/12 04:31:37;;;;;;;;;;;16.80;51.80;;;;;;4967143;28;88069;-47
2022/05/12 04:36:46;;;;;;;;;;;16.70;51.70;;;;;;4964269;28;86857;-46
2022/05/12 04:39:12;;;;;;;;;;;16.80;51.70;;;;;;4966877;28;86156;-47
2022/05/12 04:41:37;;;;;;;;;;;16.70;51.60;;;;;;4966885;28;88820;-47
2022/05/12 04:44:05;;;;;;;;;;;16.70;51.80;;;;;;4970098;28;86893;-47
2022/05/12 04:46:31;;;;;;;;;;;16.70;51.90;;;;;;4966127;28;89751;-47
2022/05/12 04:48:56;;;;;;;;;;;16.70;51.90;;;;;;4967378;28;87011;-47
2022/05/12 04:51:23;;;;;;;;;;;16.60;51.80;;;;;;4967198;28;88040;-47
2022/05/12 04:53:48;;;;;;;;;;;16.60;51.90;;;;;;4966519;28;87790;-48
2022/05/12 04:56:14;;;;;;;;;;;16.60;51.90;;;;;;4967012;28;86881;-47
2022/05/12 04:58:40;;;;;;;;;;;16.60;51.90;;;;;;4967243;28;86972;-47
2022/05/12 05:01:06;;;;;;;;;;;16.60;52.00;;;;;;4966414;28;88597;-47
2022/05/12 05:03:32;;;;;;;;;;;16.60;52.00;;;;;;4970336;28;86198;-47
2022/05/12 05:05:58;;;;;;;;;;;16.60;51.90;;;;;;4966722;28;87361;-47
2022/05/12 05:08:23;;;;;;;;;;;16.70;51.90;;;;;;4966244;28;86995;-47
2022/05/12 05:10:51;;;;;;;;;;;16.70;51.90;;;;;;4966296;28;87878;-47
2022/05/12 05:13:18;;;;;;;;;;;16.60;51.90;;;;;;4966252;28;88776;-48
2022/05/12 05:15:44;;;;;;;;;;;16.60;52.00;;;;;;4966598;28;87187;-47
2022/05/12 05:18:11;;;;;;;;;;;16.60;52.10;;;;;;4966673;28;87852;-47
2022/05/12 05:20:37;;;;;;;;;;;16.60;52.00;;;;;;4966113;28;88770;-47
2022/05/12 05:23:02;;;;;;;;;;;16.70;52.00;;;;;;4966446;28;86879;-47
2022/05/12 05:25:29;;;;;;;;;;;16.70;52.00;;;;;;4969191;28;86885;-47
2022/05/12 05:27:56;;;;;;;;;;;16.70;52.00;;;;;;4966919;28;86150;-47
2022/05/12 05:30:23;;;;;;;;;;;16.70;52.10;;;;;;4966650;28;86871;-47
2022/05/12 05:32:49;;;;;;;;;;;16.60;52.10;;;;;;4965930;28;87907;-48
2022/05/12 05:35:15;;;;;;;;;;;16.60;52.20;;;;;;4965660;28;87842;-47
2022/05/12 05:37:42;;;;;;;;;;;16.60;52.40;;;;;;4965791;28;87388;-47
2022/05/12 05:40:08;;;;;;;;;;;16.50;52.40;;;;;;4965977;28;88779;-47
2022/05/12 05:42:33;;;;;;;;;;;16.50;52.60;;;;;;4966178;28;86942;-47
2022/05/12 05:44:59;;;;;;;;;;;16.50;52.60;;;;;;4966427;28;86852;-47
2022/05/12 05:47:25;;;;;;;;;;;16.60;52.60;;;;;;4968569;28;87656;-48
2022/05/12 05:49:51;;;;;;;;;;;16.50;52.60;;;;;;4966528;28;87155;-47
2022/05/12 05:55:00;;;;;;;;;;;16.60;52.60;;;;;;4963310;28;86911;-48
2022/05/12 05:57:27;;;;;;;;;;;16.60;52.60;;;;;;4966077;28;88499;-48
2022/05/12 05:59:55;;;;;;;;;;;16.60;52.60;;;;;;4964956;28;89358;-47
2022/05/12 06:02:21;;;;;;;;;;;16.60;52.70;;;;;;4966361;28;87089;-47
2022/05/12 06:04:46;;;;;;;;;;;16.60;52.70;;;;;;4966252;28;88315;-47
2022/05/12 06:07:13;;;;;;;;;;;16.60;52.70;;;;;;4965819;28;87485;-47
2022/05/12 06:09:40;;;;;;;;;;;16.60;52.70;;;;;;4968027;28;86880;-47
2022/05/12 06:12:07;;;;;;;;;;;16.60;52.70;;;;;;4965365;28;88773;-47
2022/05/12 06:14:33;;;;;;;;;;;16.60;52.70;;;;;;4965808;28;86953;-47
2022/05/12 06:16:58;;;;;;;;;;;16.60;52.70;;;;;;4966435;28;87842;-48
2022/05/12 06:19:24;;;;;;;;;;;16.60;52.70;;;;;;4965868;28;87381;-47
2022/05/12 06:21:50;;;;;;;;;;;16.70;52.80;;;;;;4965793;28;86914;-47
2022/05/12 06:24:15;;;;;;;;;;;16.70;52.80;;;;;;4965170;28;88135;-46
2022/05/12 06:26:41;;;;;;;;;;;16.70;52.80;;;;;;4965596;28;87999;-47
2022/05/12 06:29:06;;;;;;;;;;;16.70;52.80;;;;;;4965864;28;87008;-47
2022/05/12 06:31:33;;;;;;;;;;;16.80;52.70;;;;;;4968180;28;87878;-50
2022/05/12 06:33:59;;;;;;;;;;;16.70;52.80;;;;;;4965594;28;86874;-47
2022/05/12 06:36:25;;;;;;;;;;;16.70;52.90;;;;;;4965753;28;87990;-47
2022/05/12 06:38:51;;;;;;;;;;;16.70;52.80;;;;;;4964622;28;87591;-48
2022/05/12 06:41:17;;;;;;;;;;;16.70;52.90;;;;;;4966509;28;86567;-47
2022/05/12 06:43:45;;;;;;;;;;;16.70;53.00;;;;;;4965502;28;86992;-47
2022/05/12 06:46:12;;;;;;;;;;;16.80;52.90;;;;;;4965185;28;88906;-47
2022/05/12 06:48:37;;;;;;;;;;;16.80;52.90;;;;;;4964815;28;87871;-49
2022/05/12 06:51:03;;;;;;;;;;;16.80;52.70;;;;;;4971385;28;89088;-47
2022/05/12 06:53:29;;;;;;;;;;;16.80;52.80;;;;;;4969036;28;87185;-47
2022/05/12 06:55:55;;;;;;;;;;;16.80;53.00;;;;;;4969041;28;87029;-47
2022/05/12 06:58:20;;;;;;;;;;;16.80;53.10;;;;;;4968555;28;86908;-47
2022/05/12 07:00:46;;;;;;;;;;;16.80;53.00;;;;;;4968778;28;87510;-47
2022/05/12 07:03:13;;;;;;;;;;;16.80;53.10;;;;;;4968750;28;87202;-48
2022/05/12 07:05:39;;;;;;;;;;;16.80;52.90;;;;;;4969061;28;86558;-47
2022/05/12 07:08:06;;;;;;;;;;;16.80;53.00;;;;;;4968707;28;86938;-47
2022/05/12 07:10:32;;;;;;;;;;;16.80;52.90;;;;;;4968323;28;88281;-47
2022/05/12 07:12:57;;;;;;;;;;;16.80;53.00;;;;;;4970282;28;89319;-47
2022/05/12 07:15:27;;;;;;;;;;;16.80;53.10;;;;;;4968652;28;89252;-47
2022/05/12 07:17:54;;;;;;;;;;;16.80;53.10;;;;;;4967930;28;87527;-47
2022/05/12 07:28:34;;;;;;;;;;;16.80;53.20;;;;;;4968518;28;86936;-47
2022/05/12 07:31:02;;;;;;;;;;;16.80;53.20;;;;;;4968694;28;87239;-47
2022/05/12 07:33:34;;;;;;;;;;;16.90;53.30;;;;;;4967767;28;87903;-47
2022/05/12 07:36:00;;;;;;;;;;;16.90;53.20;;;;;;4971013;28;86973;-47
2022/05/12 07:38:26;;;;;;;;;;;16.90;53.20;;;;;;4967318;28;88488;-47
2022/05/12 07:40:53;;;;;;;;;;;16.90;53.20;;;;;;4968095;28;86941;-47
2022/05/12 07:43:19;;;;;;;;;;;16.90;53.20;;;;;;4967978;28;86936;-47
2022/05/12 07:45:45;;;;;;;;;;;16.90;53.10;;;;;;4967660;28;88601;-47
2022/05/12 07:48:11;;;;;;;;;;;16.90;53.10;;;;;;4967965;28;86935;-48
2022/05/12 07:50:36;;;;;;;;;;;16.90;53.10;;;;;;4968017;28;87722;-47
2022/05/12 07:53:02;;;;;;;;;;;16.90;53.20;;;;;;4967817;28;87513;-47
2022/05/12 07:55:28;;;;;;;;;;;16.90;53.00;;;;;;4969102;28;86357;-47
2022/05/12 07:57:53;;;;;;;;;;;16.90;53.10;;;;;;4971049;28;86930;-47
2022/05/12 08:00:19;;;;;;;;;;;16.90;53.00;;;;;;4967801;28;86902;-47
2022/05/12 08:02:46;;;;;;;;;;;16.90;53.50;;;;;;4967450;28;88081;-47
2022/05/12 08:05:11;;;;;;;;;;;16.90;53.10;;;;;;4966955;28;88481;-47
2022/05/12 08:07:37;;;;;;;;;;;16.90;53.20;;;;;;4967255;28;86956;-47
2022/05/12 08:10:05;;;;;;;;;;;16.90;53.10;;;;;;4966822;28;87165;-47
2022/05/12 08:12:32;;;;;;;;;;;17.00;53.00;;;;;;4966427;28;87778;-47
2022/05/12 08:14:57;;;;;;;;;;;17.00;53.00;;;;;;4967174;28;86864;-47
2022/05/12 08:17:23;;;;;;;;;;;17.00;53.10;;;;;;4967223;28;87882;-47
2022/05/12 08:19:48;;;;;;;;;;;17.00;53.40;;;;;;4970158;28;88183;-47
2022/05/12 08:22:15;;;;;;;;;;;17.00;53.10;;;;;;4968287;28;86905;-47
2022/05/12 08:24:41;;;;;;;;;;;17.00;53.20;;;;;;4967545;28;88431;-47
2022/05/12 08:27:07;;;;;;;;;;;17.00;53.70;;;;;;4967536;28;87879;-47
2022/05/12 08:29:33;;;;;;;;;;;17.00;53.30;;;;;;4967802;28;89419;-47
2022/05/12 08:31:59;;;;;;;;;;;17.00;53.10;;;;;;4967355;28;88614;-47
2022/05/12 08:34:24;;;;;;;;;;;17.10;53.10;;;;;;4967780;28;86865;-47
2022/05/12 08:36:50;;;;;;;;;;;17.10;53.80;;;;;;4967999;28;86863;-47
2022/05/12 08:39:16;;;;;;;;;;;17.10;53.40;;;;;;4967405;28;88418;-47
2022/05/12 08:41:51;;;;;;;;;;;17.10;53.30;;;;;;4970880;28;86830;-47
2022/05/12 08:44:20;;;;;;;;;;;17.10;53.20;;;;;;4967859;28;86969;-47
2022/05/12 08:46:45;;;;;;;;;;;17.10;53.20;;;;;;4967535;28;86844;-47
2022/05/12 08:49:22;;;;;;;;;;;17.10;53.70;;;;;;4967551;28;87823;-47
2022/05/12 08:51:51;;;;;;;;;;;17.10;53.80;;;;;;4966645;28;88073;-47
2022/05/12 08:54:18;;;;;;;;;;;17.10;54.30;;;;;;4967758;28;87024;-47
2022/05/12 08:56:45;;;;;;;;;;;17.10;53.90;;;;;;4967397;28;88066;-47
2022/05/12 08:59:10;;;;;;;;;;;17.20;54.10;;;;;;4966968;28;88723;-47
2022/05/12 09:01:55;;;;;;;;;;;17.20;53.40;;;;;;4970530;28;86940;-47
2022/05/12 09:04:36;;;;;;;;;;;17.20;53.30;;;;;;4967189;28;87011;-47
2022/05/12 09:07:10;;;;;;;;;;;17.20;53.20;;;;;;4967213;28;87079;-47
2022/05/12 09:09:38;;;;;;;;;;;17.20;53.20;;;;;;4967542;28;88100;-47
2022/05/12 09:12:04;;;;;;;;;;;17.20;53.20;;;;;;4966437;28;88375;-47
2022/05/12 09:14:34;;;;;;;;;;;17.30;53.30;;;;;;4967438;28;86854;-47
2022/05/12 09:17:00;;;;;;;;;;;17.30;53.20;;;;;;4966788;28;88067;-47
2022/05/12 09:19:26;;;;;;;;;;;17.30;53.30;;;;;;4966982;28;87375;-47
2022/05/12 09:21:51;;;;;;;;;;;17.30;53.50;;;;;;4967297;28;86963;-47
2022/05/12 09:24:17;;;;;;;;;;;17.30;53.80;;;;;;4969618;28;87299;-47
2022/05/12 09:26:44;;;;;;;;;;;17.30;53.70;;;;;;4966932;28;87081;-47
2022/05/12 09:29:21;;;;;;;;;;;17.30;53.80;;;;;;4966846;28;88045;-47
2022/05/12 09:32:15;;;;;;;;;;;17.40;53.40;;;;;;4966466;28;87721;-47
2022/05/12 09:34:43;;;;;;;;;;;17.40;53.30;;;;;;4967408;28;86211;-47
2022/05/12 09:37:12;;;;;;;;;;;17.40;53.20;;;;;;4966789;28;87258;-47
2022/05/12 09:39:39;;;;;;;;;;;17.40;53.20;;;;;;4966823;28;87211;-47
2022/05/12 09:42:06;;;;;;;;;;;17.40;53.20;;;;;;4966241;28;87849;-47
2022/05/12 09:44:33;;;;;;;;;;;17.40;53.30;;;;;;4966647;28;88834;-47
2022/05/12 09:47:04;;;;;;;;;;;17.50;53.60;;;;;;4969090;28;88628;-47
2022/05/12 09:49:31;;;;;;;;;;;17.50;53.70;;;;;;4966057;28;86915;-47
2022/05/12 09:51:57;;;;;;;;;;;17.50;54.00;;;;;;4966341;28;87701;-48
2022/05/12 09:54:29;;;;;;;;;;;17.50;54.00;;;;;;4966524;28;87133;-47
2022/05/12 09:57:14;;;;;;;;;;;17.50;53.80;;;;;;4966584;28;87909;-47
2022/05/12 09:59:41;;;;;;;;;;;17.60;53.40;;;;;;4966785;28;87062;-47
2022/05/12 10:02:12;;;;;;;;;;;17.60;53.30;;;;;;4966488;28;86902;-47
2022/05/12 10:10:19;;;;;;;;;;;17.60;53.30;;;;;;4969421;28;87151;-48
2022/05/12 10:13:05;;;;;;;;;;;17.70;53.30;;;;;;4965918;28;88790;-47
2022/05/12 10:15:32;;;;;;;;;;;17.70;53.40;;;;;;4952129;28;87331;-47
2022/05/12 10:18:17;;;;;;;;;;;17.70;53.40;;;;;;4965796;28;87023;-47
2022/05/12 10:20:45;;;;;;;;;;;17.70;53.30;;;;;;4966258;28;86806;-47
2022/05/12 10:23:22;;;;;;;;;;;17.70;53.30;;;;;;4966354;28;86837;-47
2022/05/12 10:26:06;;;;;;;;;;;17.70;53.20;;;;;;4969816;28;86879;-47
2022/05/12 10:28:50;;;;;;;;;;;17.70;53.40;;;;;;4969498;28;87494;-47
2022/05/12 10:31:49;;;;;;;;;;;17.80;53.40;;;;;;4969926;28;86893;-47
2022/05/12 10:34:23;;;;;;;;;;;17.80;53.50;;;;;;4927741;28;87974;-47
2022/05/12 10:37:07;;;;;;;;;;;17.90;53.50;;;;;;4969565;28;86905;-47
2022/05/12 10:39:47;;;;;;;;;;;17.90;53.40;;;;;;4969876;28;86758;-47
2022/05/12 10:42:25;;;;;;;;;;;17.90;53.40;;;;;;4969166;28;87686;-47
2022/05/12 10:45:04;;;;;;;;;;;17.90;53.20;;;;;;4969811;28;86930;-47
2022/05/12 10:47:48;;;;;;;;;;;17.90;53.20;;;;;;4969467;28;87272;-47
2022/05/12 10:50:23;;;;;;;;;;;18.00;53.30;;;;;;4969279;28;87371;-47
2022/05/12 10:52:49;;;;;;;;;;;18.00;53.20;;;;;;4969706;28;86148;-47
2022/05/12 10:55:14;;;;;;;;;;;18.00;53.30;;;;;;4969232;28;87130;-47
2022/05/12 10:57:43;;;;;;;;;;;18.00;53.40;;;;;;4971725;28;88529;-47
2022/05/12 11:00:24;;;;;;;;;;;18.00;53.30;;;;;;4968666;28;88523;-47
2022/05/12 11:02:54;;;;;;;;;;;18.10;53.30;;;;;;4968739;28;88555;-47
2022/05/12 11:05:32;;;;;;;;;;;18.10;53.30;;;;;;4969223;28;86862;-47
2022/05/12 11:08:09;;;;;;;;;;;18.10;53.20;;;;;;4969113;28;87122;-47
2022/05/12 11:10:41;;;;;;;;;;;18.10;53.10;;;;;;4968313;28;89135;-47
2022/05/12 11:13:25;;;;;;;;;;;18.20;53.20;;;;;;4968935;28;86871;-47
2022/05/12 11:15:51;;;;;;;;;;;18.20;53.30;;;;;;4969031;28;88017;-47
2022/05/12 11:18:21;;;;;;;;;;;18.20;53.50;;;;;;4971902;28;87359;-47
2022/05/12 11:20:51;;;;;;;;;;;18.20;53.40;;;;;;4968921;28;87164;-47
2022/05/12 11:23:23;;;;;;;;;;;18.20;53.30;;;;;;4968777;28;87532;-47
2022/05/12 11:25:52;;;;;;;;;;;18.30;53.20;;;;;;4968258;28;87766;-47
2022/05/12 11:31:21;;;;;;;;;;;18.30;53.40;;;;;;4968721;28;86853;-47
2022/05/12 11:34:08;;;;;;;;;;;18.40;53.30;;;;;;4968769;28;86942;-47
2022/05/12 11:36:38;;;;;;;;;;;18.40;53.30;;;;;;4968559;28;87183;-47
2022/05/12 11:39:22;;;;;;;;;;;18.50;53.20;;;;;;4968218;28;88567;-47
2022/05/12 11:41:47;;;;;;;;;;;18.40;53.10;;;;;;4971525;28;86866;-48
2022/05/12 11:44:26;;;;;;;;;;;18.50;53.10;;;;;;4968710;28;87933;-47
2022/05/12 11:47:11;;;;;;;;;;;18.50;53.10;;;;;;4968525;28;86950;-47
2022/05/12 11:49:48;;;;;;;;;;;18.50;53.10;;;;;;4968504;28;88056;-47
2022/05/12 11:52:20;;;;;;;;;;;18.50;53.10;;;;;;4967576;28;88483;-47
2022/05/12 11:54:54;;;;;;;;;;;18.50;53.10;;;;;;4968684;28;86987;-47
2022/05/12 11:57:23;;;;;;;;;;;18.60;53.10;;;;;;4968420;28;87750;-47
2022/05/12 11:59:50;;;;;;;;;;;18.60;53.10;;;;;;4967959;28;88957;-47
2022/05/12 12:02:28;;;;;;;;;;;18.60;53.20;;;;;;4968247;28;86778;-47
2022/05/12 12:04:58;;;;;;;;;;;18.60;53.10;;;;;;4970974;28;86877;-47
2022/05/12 12:07:33;;;;;;;;;;;18.70;53.10;;;;;;4968452;28;86921;-47
2022/05/12 12:10:18;;;;;;;;;;;18.70;53.00;;;;;;4968329;28;87813;-47
2022/05/12 12:12:43;;;;;;;;;;;18.70;53.00;;;;;;4967002;28;87603;-47
2022/05/12 12:15:10;;;;;;;;;;;18.70;53.00;;;;;;4968069;28;87222;-47
2022/05/12 12:17:38;;;;;;;;;;;18.70;53.00;;;;;;4967515;28;87815;-47
2022/05/12 12:20:08;;;;;;;;;;;18.80;53.60;;;;;;4967515;28;87486;-47
2022/05/12 12:22:43;;;;;;;;;;;18.80;53.00;;;;;;4967311;28;86886;-47
2022/05/12 12:25:09;;;;;;;;;;;18.80;53.00;;;;;;4967446;28;87757;-48
2022/05/12 12:27:46;;;;;;;;;;;18.90;53.00;;;;;;4969948;28;88520;-47
2022/05/12 12:30:27;;;;;;;;;;;18.90;53.00;;;;;;4967629;28;87087;-48
2022/05/12 12:33:16;;;;;;;;;;;18.90;53.00;;;;;;4966832;28;87665;-47
2022/05/12 12:36:10;;;;;;;;;;;18.90;52.90;;;;;;4967790;28;86265;-48
2022/05/12 12:38:39;;;;;;;;;;;19.00;53.00;;;;;;4949986;28;86880;-47
2022/05/12 12:41:06;;;;;;;;;;;19.00;53.00;;;;;;4967195;28;87689;-47
2022/05/12 12:43:54;;;;;;;;;;;19.00;53.00;;;;;;4966836;28;88057;-47
2022/05/12 12:46:25;;;;;;;;;;;19.10;52.90;;;;;;4966823;28;87770;-47
2022/05/12 12:49:02;;;;;;;;;;;19.10;53.00;;;;;;4966329;28;88702;-48
2022/05/12 12:51:33;;;;;;;;;;;19.10;53.00;;;;;;4969859;28;86917;-48
2022/05/12 12:56:43;;;;;;;;;;;19.20;52.90;;;;;;4967078;28;86952;-48
2022/05/12 12:59:16;;;;;;;;;;;19.30;53.00;;;;;;4967298;28;87076;-48
2022/05/12 13:01:53;;;;;;;;;;;19.30;53.00;;;;;;4967342;28;86758;-49
2022/05/12 13:04:24;;;;;;;;;;;19.30;53.00;;;;;;4966806;28;87164;-48
2022/05/12 13:06:51;;;;;;;;;;;19.30;53.00;;;;;;4966816;28;87976;-48
2022/05/12 13:09:22;;;;;;;;;;;19.30;53.00;;;;;;4965385;28;89766;-47
2022/05/12 13:11:47;;;;;;;;;;;19.40;53.10;;;;;;4967144;28;87118;-47
2022/05/12 13:14:15;;;;;;;;;;;19.40;53.00;;;;;;4969155;28;87431;-47
2022/05/12 13:16:43;;;;;;;;;;;19.40;53.00;;;;;;4966606;28;86892;-50
2022/05/12 13:19:09;;;;;;;;;;;19.50;53.20;;;;;;4966942;28;86790;-48
2022/05/12 13:21:37;;;;;;;;;;;19.50;53.10;;;;;;4966128;28;88565;-48
2022/05/12 13:24:04;;;;;;;;;;;19.50;53.20;;;;;;4966495;28;86927;-49
2022/05/12 13:26:31;;;;;;;;;;;19.60;53.20;;;;;;4967126;28;87815;-48
2022/05/12 13:28:58;;;;;;;;;;;19.60;53.30;;;;;;4966241;28;87632;-51
2022/05/12 13:31:26;;;;;;;;;;;19.60;53.20;;;;;;4966304;28;86863;-48
2022/05/12 13:34:04;;;;;;;;;;;19.70;53.30;;;;;;4967879;28;87853;-48
2022/05/12 13:36:53;;;;;;;;;;;19.70;53.30;;;;;;4966412;28;86986;-48
2022/05/12 13:39:38;;;;;;;;;;;19.70;53.40;;;;;;4966431;28;87298;-48
2022/05/12 13:42:05;;;;;;;;;;;19.80;53.30;;;;;;4965786;28;88537;-49
2022/05/12 13:44:36;;;;;;;;;;;19.80;53.40;;;;;;4966471;28;87078;-48
2022/05/12 13:47:04;;;;;;;;;;;19.80;53.40;;;;;;4966272;28;87888;-48
2022/05/12 13:49:34;;;;;;;;;;;19.90;53.40;;;;;;4965913;28;88649;-48
2022/05/12 13:52:21;;;;;;;;;;;19.90;53.30;;;;;;4966797;28;86154;-48
2022/05/12 13:55:00;;;;;;;;;;;19.90;53.40;;;;;;4966177;28;87190;-48
2022/05/12 13:57:32;;;;;;;;;;;19.90;53.40;;;;;;4968744;28;87584;-49
2022/05/12 13:59:57;;;;;;;;;;;20.00;53.40;;;;;;4967850;28;87778;-48
2022/05/12 14:02:31;;;;;;;;;;;20.00;53.50;;;;;;4969669;28;87995;-49
2022/05/12 14:05:00;;;;;;;;;;;20.00;53.10;;;;;;4969660;28;86863;-48
2022/05/12 14:07:27;;;;;;;;;;;20.10;53.50;;;;;;4969484;28;88049;-48
2022/05/12 14:09:58;;;;;;;;;;;20.10;53.50;;;;;;4968930;28;88625;-48
2022/05/12 14:12:27;;;;;;;;;;;20.10;53.30;;;;;;4969492;28;86944;-48
2022/05/12 14:20:29;;;;;;;;;;;20.20;53.10;;;;;;4972587;28;86887;-48
2022/05/12 14:22:55;;;;;;;;;;;20.30;53.10;;;;;;4969132;28;87419;-48
2022/05/12 14:25:21;;;;;;;;;;;20.40;53.00;;;;;;4968707;28;87821;-48
2022/05/12 14:27:47;;;;;;;;;;;20.40;52.90;;;;;;4969128;28;88865;-48
2022/05/12 14:30:13;;;;;;;;;;;20.30;52.90;;;;;;4968796;28;88287;-49
2022/05/12 14:32:40;;;;;;;;;;;20.30;52.90;;;;;;4969014;28;88739;-48
2022/05/12 14:35:06;;;;;;;;;;;20.40;53.10;;;;;;4969401;28;86941;-49
2022/05/12 14:37:32;;;;;;;;;;;20.40;53.00;;;;;;4968600;28;88510;-48
2022/05/12 14:39:59;;;;;;;;;;;20.40;53.20;;;;;;4968794;28;86909;-48
2022/05/12 14:42:24;;;;;;;;;;;20.30;53.20;;;;;;4971248;28;87176;-48
2022/05/12 14:44:50;;;;;;;;;;;20.40;53.00;;;;;;4968999;28;86842;-48
2022/05/12 14:47:20;;;;;;;;;;;20.30;52.80;;;;;;4969035;28;87914;-48
2022/05/12 14:49:48;;;;;;;;;;;20.40;52.80;;;;;;4967762;28;89360;-48
2022/05/12 14:52:17;;;;;;;;;;;20.40;52.90;;;;;;4968801;28;86875;-49
2022/05/12 14:54:42;;;;;;;;;;;20.40;53.10;;;;;;4968966;28;87137;-48